Terminal Aerodrome Forecast
Issued by NWS

Home | Current Version | Previous Version | Text Only | Print | Product List | Glossary On
Versions: 1 2 3 4 5 6 7 8 9 10 11 12 13 14 15 16 17 18 19 20 21 22 23
506
FTUS41 KOKX 051525 AAB
TAFSWF
TAF AMD
KSWF 051525Z 0515/0618 05010KT P6SM OVC020
     FM051700 05012G17KT P6SM BKN030
     FM060000 04009KT P6SM SCT010 OVC020
     FM060600 05008KT 5SM -RA BR BKN007 OVC010
      AMD NOT SKED=

USA.gov is the U.S. government's official web portal to all federal, state and local government web resources and services.